Time;durP1;ratioP1;P1;durP2;ratioP2;P2;SDS_P1;SDS_P2;PMS_P1;PMS_P2;Temp;Humidity;BMP_temperature;BMP_pressure;BME280_temperature;BME280_humidity;BME280_pressure;Samples;Min_cycle;Max_cycle;Signal;HPM_P1;HPM_P2
2024/01/10 00:02:06;;;;;;;131.00;123.27;;;;;;;;;;5034150;28;20467;-62
2024/01/10 00:04:33;;;;;;;134.65;126.95;;;;;;;;;;5046961;28;20491;-63
2024/01/10 00:07:00;;;;;;;130.00;122.05;;;;;;;;;;5037221;28;20443;-62
2024/01/10 00:09:27;;;;;;;122.00;115.03;;;;;;;;;;5041905;28;20508;-62
2024/01/10 00:11:54;;;;;;;138.10;130.00;;;;;;;;;;5039439;28;20434;-62
2024/01/10 00:14:22;;;;;;;142.27;133.73;;;;;;;;;;5033790;28;20470;-62
2024/01/10 00:16:49;;;;;;;142.98;134.55;;;;;;;;;;5027544;28;20484;-62
2024/01/10 00:19:16;;;;;;;158.95;149.85;;;;;;;;;;5030471;28;20489;-62
2024/01/10 00:21:43;;;;;;;141.95;134.02;;;;;;;;;;5039939;28;20425;-62
2024/01/10 00:24:11;;;;;;;136.30;128.60;;;;;;;;;;5039231;28;20479;-61
2024/01/10 00:26:38;;;;;;;140.93;132.77;;;;;;;;;;5035361;28;20433;-61
2024/01/10 00:29:05;;;;;;;144.88;136.77;;;;;;;;;;5043049;28;20895;-61
2024/01/10 00:31:32;;;;;;;135.07;127.07;;;;;;;;;;5031762;28;20533;-62
2024/01/10 00:34:00;;;;;;;119.75;112.80;;;;;;;;;;5035790;28;21014;-62
2024/01/10 00:36:27;;;;;;;135.43;127.40;;;;;;;;;;5031782;28;20813;-61
2024/01/10 00:38:54;;;;;;;144.55;135.73;;;;;;;;;;5036540;28;21000;-61
2024/01/10 00:41:21;;;;;;;170.20;160.60;;;;;;;;;;5038303;28;20425;-61
2024/01/10 00:43:51;;;;;;;159.15;150.00;;;;;;;;;;5039425;28;21010;-62
2024/01/10 00:46:21;;;;;;;144.32;136.18;;;;;;;;;;5039961;28;20431;-61
2024/01/10 00:48:49;;;;;;;150.75;141.88;;;;;;;;;;5045955;28;21028;-62
2024/01/10 00:51:16;;;;;;;170.00;160.18;;;;;;;;;;5033222;28;20477;-62
2024/01/10 00:53:43;;;;;;;164.15;155.40;;;;;;;;;;5031708;28;20434;-62
2024/01/10 00:56:11;;;;;;;163.80;155.15;;;;;;;;;;5041877;28;20518;-62
2024/01/10 00:58:39;;;;;;;168.45;159.15;;;;;;;;;;5045400;28;20435;-62
2024/01/10 01:01:06;;;;;;;168.00;159.13;;;;;;;;;;5036312;28;21072;-60
2024/01/10 01:03:36;;;;;;;163.40;154.65;;;;;;;;;;5031973;28;20528;-61
2024/01/10 01:06:03;;;;;;;165.30;156.43;;;;;;;;;;5045621;28;20450;-61
2024/01/10 01:08:31;;;;;;;191.55;180.85;;;;;;;;;;5042148;28;20799;-60
2024/01/10 01:10:58;;;;;;;173.13;163.23;;;;;;;;;;5040761;28;20493;-61
2024/01/10 01:13:25;;;;;;;155.50;146.80;;;;;;;;;;5046476;28;20433;-61
2024/01/10 01:15:52;;;;;;;134.38;126.47;;;;;;;;;;5040191;28;20425;-61
2024/01/10 01:18:19;;;;;;;147.60;139.50;;;;;;;;;;5047181;28;20432;-60
2024/01/10 01:20:48;;;;;;;152.05;143.70;;;;;;;;;;5037890;28;20431;-61
2024/01/10 01:23:15;;;;;;;162.70;154.00;;;;;;;;;;5045148;28;20433;-61
2024/01/10 01:25:59;;;;;;;157.37;148.40;;;;;;;;;;5042155;28;20433;-61
2024/01/10 01:28:26;;;;;;;151.38;143.05;;;;;;;;;;5043116;28;20951;-61
2024/01/10 01:30:54;;;;;;;163.25;154.18;;;;;;;;;;5033736;28;20433;-61
2024/01/10 01:33:21;;;;;;;183.35;172.70;;;;;;;;;;5042982;28;20433;-61
2024/01/10 01:35:49;;;;;;;151.00;142.73;;;;;;;;;;5039493;28;20434;-61
2024/01/10 01:38:16;;;;;;;165.13;156.00;;;;;;;;;;5038506;28;21949;-61
2024/01/10 01:40:43;;;;;;;156.90;148.05;;;;;;;;;;5036969;28;20434;-61
2024/01/10 01:43:24;;;;;;;160.70;151.10;;;;;;;;;;5040270;28;20436;-61
2024/01/10 01:45:53;;;;;;;161.48;151.80;;;;;;;;;;5038718;28;20781;-60
2024/01/10 01:48:21;;;;;;;155.27;146.30;;;;;;;;;;5038732;28;20929;-61
2024/01/10 01:50:51;;;;;;;158.47;149.43;;;;;;;;;;5043094;28;20435;-61
2024/01/10 01:53:19;;;;;;;162.75;153.65;;;;;;;;;;5040048;28;20444;-61
2024/01/10 01:55:53;;;;;;;190.07;178.73;;;;;;;;;;5046048;28;20425;-61
2024/01/10 01:58:21;;;;;;;177.43;167.10;;;;;;;;;;5039117;28;20431;-61
2024/01/10 02:00:48;;;;;;;168.23;158.57;;;;;;;;;;5047343;28;20816;-61
2024/01/10 02:03:17;;;;;;;159.88;150.93;;;;;;;;;;5040855;28;20480;-61
2024/01/10 02:05:48;;;;;;;154.18;145.75;;;;;;;;;;5048292;28;20433;-60
2024/01/10 02:08:17;;;;;;;160.40;151.55;;;;;;;;;;5030855;28;20509;-60
2024/01/10 02:10:44;;;;;;;159.27;150.07;;;;;;;;;;5026050;28;20436;-62
2024/01/10 02:13:12;;;;;;;136.20;128.63;;;;;;;;;;5027244;28;20433;-61
2024/01/10 02:15:39;;;;;;;143.88;135.65;;;;;;;;;;5026241;28;20534;-61
2024/01/10 02:18:06;;;;;;;143.07;134.85;;;;;;;;;;5024153;28;20432;-61
2024/01/10 02:20:34;;;;;;;131.32;124.05;;;;;;;;;;5030866;28;20460;-61
2024/01/10 02:23:01;;;;;;;155.65;147.15;;;;;;;;;;5025720;28;20475;-61
2024/01/10 02:25:28;;;;;;;155.05;145.95;;;;;;;;;;5021884;28;20460;-61
2024/01/10 02:27:56;;;;;;;151.83;142.87;;;;;;;;;;5026249;28;20447;-61
2024/01/10 02:30:26;;;;;;;140.20;131.88;;;;;;;;;;5026555;28;20551;-61
2024/01/10 02:32:53;;;;;;;151.48;142.45;;;;;;;;;;5029728;28;20506;-61
2024/01/10 02:35:21;;;;;;;151.43;142.50;;;;;;;;;;5022972;28;20431;-61
2024/01/10 02:37:51;;;;;;;154.93;146.23;;;;;;;;;;5031549;28;20482;-61
2024/01/10 02:40:18;;;;;;;140.60;132.68;;;;;;;;;;5023390;28;20950;-61
2024/01/10 02:42:46;;;;;;;145.77;137.38;;;;;;;;;;5027669;28;20499;-61
2024/01/10 02:45:13;;;;;;;148.87;140.70;;;;;;;;;;5022360;28;20440;-61
2024/01/10 02:47:40;;;;;;;157.93;148.95;;;;;;;;;;5018003;28;20499;-61
2024/01/10 02:50:08;;;;;;;150.30;142.23;;;;;;;;;;5025611;28;20444;-61
2024/01/10 02:52:35;;;;;;;106.18;100.47;;;;;;;;;;5025923;28;20437;-61
2024/01/10 02:55:02;;;;;;;148.70;140.63;;;;;;;;;;5023634;28;20438;-61
2024/01/10 02:57:30;;;;;;;153.80;145.45;;;;;;;;;;5025609;28;20548;-61
2024/01/10 02:59:57;;;;;;;153.65;145.00;;;;;;;;;;5023446;28;20438;-61
2024/01/10 03:02:24;;;;;;;98.30;93.03;;;;;;;;;;5033006;28;20520;-61
2024/01/10 03:04:55;;;;;;;161.05;151.93;;;;;;;;;;5040230;28;20433;-61
2024/01/10 03:07:24;;;;;;;159.25;150.57;;;;;;;;;;5039414;28;20777;-62
2024/01/10 03:09:54;;;;;;;166.82;157.45;;;;;;;;;;5035855;28;20439;-61
2024/01/10 03:12:22;;;;;;;179.95;169.20;;;;;;;;;;5035408;28;20433;-61
2024/01/10 03:14:49;;;;;;;167.05;157.43;;;;;;;;;;5028532;28;20632;-61
2024/01/10 03:17:16;;;;;;;164.48;155.38;;;;;;;;;;5035484;28;20475;-61
2024/01/10 03:19:44;;;;;;;158.68;150.00;;;;;;;;;;5036762;28;20438;-61
2024/01/10 03:22:11;;;;;;;159.70;150.80;;;;;;;;;;5039168;28;20907;-61
2024/01/10 03:24:38;;;;;;;155.57;147.00;;;;;;;;;;5028838;28;20530;-61
2024/01/10 03:27:06;;;;;;;164.35;154.18;;;;;;;;;;5039452;28;20499;-61
2024/01/10 03:29:35;;;;;;;160.93;152.30;;;;;;;;;;5036129;28;20514;-61
2024/01/10 03:32:02;;;;;;;166.15;157.18;;;;;;;;;;5028411;28;20431;-61
2024/01/10 03:34:32;;;;;;;159.73;151.18;;;;;;;;;;5038506;28;20441;-61
2024/01/10 03:36:59;;;;;;;154.40;145.68;;;;;;;;;;5037263;28;20555;-62
2024/01/10 03:39:26;;;;;;;144.25;136.38;;;;;;;;;;5030266;28;20943;-61
2024/01/10 03:41:53;;;;;;;128.30;120.90;;;;;;;;;;5036892;28;20434;-61
2024/01/10 03:44:20;;;;;;;135.25;127.63;;;;;;;;;;5027826;28;20449;-61
2024/01/10 03:46:47;;;;;;;153.38;145.02;;;;;;;;;;5031378;28;20504;-61
2024/01/10 03:49:17;;;;;;;134.85;127.18;;;;;;;;;;5039157;28;20428;-61
2024/01/10 03:51:45;;;;;;;151.05;142.85;;;;;;;;;;5034992;28;20438;-61
2024/01/10 03:54:14;;;;;;;150.23;142.00;;;;;;;;;;5029256;28;20928;-61
2024/01/10 03:56:42;;;;;;;142.15;134.05;;;;;;;;;;5029656;28;20421;-62
2024/01/10 03:59:09;;;;;;;125.53;118.13;;;;;;;;;;5036932;28;20828;-61
2024/01/10 04:01:39;;;;;;;152.27;143.65;;;;;;;;;;5038056;28;20420;-61
2024/01/10 04:04:06;;;;;;;140.27;131.75;;;;;;;;;;5042121;28;20520;-61
2024/01/10 04:06:34;;;;;;;176.87;167.13;;;;;;;;;;5037894;28;20729;-61
2024/01/10 04:09:08;;;;;;;155.25;146.63;;;;;;;;;;5032903;28;20442;-61
2024/01/10 04:11:35;;;;;;;156.75;148.07;;;;;;;;;;5029685;28;20439;-61
2024/01/10 04:14:03;;;;;;;159.02;149.88;;;;;;;;;;5045781;28;20429;-61
2024/01/10 04:16:33;;;;;;;160.80;152.15;;;;;;;;;;5035320;28;20425;-61
2024/01/10 04:19:03;;;;;;;144.63;136.50;;;;;;;;;;5036193;28;20491;-61
2024/01/10 04:21:33;;;;;;;155.18;146.85;;;;;;;;;;5038077;28;20439;-61
2024/01/10 04:24:00;;;;;;;99.50;94.20;;;;;;;;;;5043243;28;20464;-61
2024/01/10 04:26:27;;;;;;;124.25;116.90;;;;;;;;;;5040584;28;20429;-61
2024/01/10 04:28:55;;;;;;;99.72;93.63;;;;;;;;;;5034357;28;20956;-61
2024/01/10 04:31:22;;;;;;;146.40;138.60;;;;;;;;;;5037159;28;20421;-62
2024/01/10 04:33:49;;;;;;;148.05;140.02;;;;;;;;;;5033181;28;20484;-60
2024/01/10 04:36:16;;;;;;;132.20;124.88;;;;;;;;;;5033202;28;20577;-60
2024/01/10 04:38:44;;;;;;;138.40;130.88;;;;;;;;;;5035671;28;20425;-60
2024/01/10 04:41:11;;;;;;;147.43;139.07;;;;;;;;;;5039636;28;20466;-60
2024/01/10 04:43:41;;;;;;;139.85;131.98;;;;;;;;;;5031679;28;20427;-60
2024/01/10 04:46:10;;;;;;;151.73;143.63;;;;;;;;;;5027544;28;20451;-60
2024/01/10 04:48:37;;;;;;;153.60;143.90;;;;;;;;;;5033674;28;20431;-60
2024/01/10 04:51:05;;;;;;;143.95;135.60;;;;;;;;;;5040625;28;20439;-61
2024/01/10 04:53:35;;;;;;;142.52;134.48;;;;;;;;;;5035989;28;20438;-61
2024/01/10 04:56:05;;;;;;;150.85;142.77;;;;;;;;;;5032954;28;20453;-61
2024/01/10 04:58:34;;;;;;;153.82;145.45;;;;;;;;;;5036257;28;20477;-61
2024/01/10 05:01:01;;;;;;;143.35;135.52;;;;;;;;;;5029554;28;20512;-61
2024/01/10 05:03:28;;;;;;;135.98;128.50;;;;;;;;;;5026374;28;20427;-61
2024/01/10 05:05:59;;;;;;;139.40;131.88;;;;;;;;;;5027200;28;20435;-61
2024/01/10 05:08:26;;;;;;;134.93;127.35;;;;;;;;;;5035029;28;20499;-61
2024/01/10 05:10:53;;;;;;;153.88;145.25;;;;;;;;;;5026576;28;20534;-61
2024/01/10 05:13:21;;;;;;;147.13;139.05;;;;;;;;;;5033978;28;20804;-62
2024/01/10 05:15:48;;;;;;;144.05;136.18;;;;;;;;;;5040866;28;20865;-61
2024/01/10 05:18:16;;;;;;;148.98;140.88;;;;;;;;;;5028121;28;20462;-61
2024/01/10 05:20:43;;;;;;;137.52;129.98;;;;;;;;;;5029381;28;20467;-61
2024/01/10 05:23:10;;;;;;;150.45;142.40;;;;;;;;;;5037882;28;20425;-61
2024/01/10 05:25:38;;;;;;;130.90;123.63;;;;;;;;;;5047581;28;20480;-61
2024/01/10 05:28:05;;;;;;;138.48;130.93;;;;;;;;;;5035065;28;20470;-60
2024/01/10 05:30:33;;;;;;;133.10;125.78;;;;;;;;;;5036767;28;20506;-61
2024/01/10 05:33:00;;;;;;;122.75;115.97;;;;;;;;;;5042835;28;20487;-61
2024/01/10 05:35:30;;;;;;;140.50;132.82;;;;;;;;;;5042244;28;20988;-60
2024/01/10 05:37:58;;;;;;;147.07;138.85;;;;;;;;;;5040688;28;20434;-60
2024/01/10 05:40:25;;;;;;;147.27;139.38;;;;;;;;;;5042247;28;20432;-61
2024/01/10 05:42:52;;;;;;;134.13;126.18;;;;;;;;;;5035317;28;20925;-61
2024/01/10 05:45:19;;;;;;;142.93;135.10;;;;;;;;;;5039370;28;21166;-61
2024/01/10 05:47:48;;;;;;;141.10;133.45;;;;;;;;;;5036770;28;20495;-61
2024/01/10 05:50:15;;;;;;;137.95;130.35;;;;;;;;;;5032342;28;20909;-61
2024/01/10 05:52:43;;;;;;;133.05;125.60;;;;;;;;;;5036948;28;20437;-61
2024/01/10 05:55:12;;;;;;;137.50;129.90;;;;;;;;;;5033781;28;20936;-60
2024/01/10 05:57:39;;;;;;;141.82;133.38;;;;;;;;;;5039194;28;20433;-60
2024/01/10 06:00:09;;;;;;;145.18;137.25;;;;;;;;;;5036392;28;20433;-60
2024/01/10 06:02:40;;;;;;;131.75;123.88;;;;;;;;;;5040269;28;20526;-60
2024/01/10 06:05:08;;;;;;;133.77;126.32;;;;;;;;;;5038148;28;20470;-61
2024/01/10 06:07:41;;;;;;;121.22;114.30;;;;;;;;;;5044319;28;20433;-60
2024/01/10 06:10:08;;;;;;;142.85;135.02;;;;;;;;;;5043608;28;20440;-60
2024/01/10 06:12:38;;;;;;;144.67;136.43;;;;;;;;;;5041839;28;20433;-60
2024/01/10 06:15:06;;;;;;;133.68;126.35;;;;;;;;;;5044432;28;20515;-60
2024/01/10 06:17:33;;;;;;;153.77;145.27;;;;;;;;;;5033034;28;20462;-60
2024/01/10 06:20:02;;;;;;;157.18;147.75;;;;;;;;;;5042765;28;20822;-60
2024/01/10 06:22:30;;;;;;;129.40;121.95;;;;;;;;;;5038264;28;20520;-60
2024/01/10 06:24:57;;;;;;;148.73;139.83;;;;;;;;;;5035877;28;20552;-60
2024/01/10 06:27:24;;;;;;;134.32;126.68;;;;;;;;;;5036750;28;20900;-59
2024/01/10 06:29:51;;;;;;;147.25;138.63;;;;;;;;;;5041555;28;20448;-59
2024/01/10 06:32:19;;;;;;;138.77;131.13;;;;;;;;;;5042160;28;20464;-60
2024/01/10 06:34:46;;;;;;;140.02;132.05;;;;;;;;;;5047262;28;20487;-59
2024/01/10 06:37:13;;;;;;;141.77;133.75;;;;;;;;;;5040696;28;20438;-60
2024/01/10 06:39:41;;;;;;;147.05;135.77;;;;;;;;;;5035501;28;20542;-60
2024/01/10 06:42:11;;;;;;;172.32;161.93;;;;;;;;;;5038711;28;20479;-60
2024/01/10 06:44:38;;;;;;;153.30;144.60;;;;;;;;;;5047104;28;20443;-60
2024/01/10 06:47:08;;;;;;;134.23;126.57;;;;;;;;;;5043082;28;20463;-60
2024/01/10 06:49:35;;;;;;;139.13;131.18;;;;;;;;;;5038202;28;20449;-59
2024/01/10 06:52:02;;;;;;;149.75;141.30;;;;;;;;;;5032491;28;20458;-59
2024/01/10 06:54:29;;;;;;;156.07;146.93;;;;;;;;;;5030113;28;20438;-59
2024/01/10 06:56:56;;;;;;;144.10;135.88;;;;;;;;;;5039977;28;20435;-60
2024/01/10 06:59:24;;;;;;;167.43;157.55;;;;;;;;;;5043260;28;20451;-59
2024/01/10 07:01:56;;;;;;;159.07;149.38;;;;;;;;;;5043393;28;20429;-60
2024/01/10 07:04:24;;;;;;;157.70;148.73;;;;;;;;;;5041629;28;20437;-59
2024/01/10 07:06:55;;;;;;;147.38;138.75;;;;;;;;;;5034699;28;20431;-59
2024/01/10 07:09:22;;;;;;;161.77;152.50;;;;;;;;;;5036367;28;20948;-59
2024/01/10 07:11:49;;;;;;;134.60;126.80;;;;;;;;;;5039473;28;20429;-59
2024/01/10 07:14:17;;;;;;;141.25;132.75;;;;;;;;;;5038953;28;20436;-59
2024/01/10 07:16:45;;;;;;;127.30;119.85;;;;;;;;;;5035852;28;20887;-59
2024/01/10 07:19:14;;;;;;;155.95;147.18;;;;;;;;;;5040847;28;20439;-59
2024/01/10 07:21:47;;;;;;;139.13;131.35;;;;;;;;;;5042493;28;20468;-60
2024/01/10 07:24:14;;;;;;;140.23;131.65;;;;;;;;;;5034524;28;20434;-59
2024/01/10 07:26:43;;;;;;;142.40;133.88;;;;;;;;;;5045398;28;20491;-60
2024/01/10 07:29:10;;;;;;;142.95;134.13;;;;;;;;;;5041323;28;20468;-60
2024/01/10 07:31:37;;;;;;;142.25;134.68;;;;;;;;;;5031506;28;20434;-60
2024/01/10 07:34:04;;;;;;;142.23;134.45;;;;;;;;;;5043800;28;20469;-60
2024/01/10 07:36:33;;;;;;;162.15;153.50;;;;;;;;;;5045144;28;20440;-60
2024/01/10 07:39:01;;;;;;;157.88;149.43;;;;;;;;;;5041592;28;20824;-60
2024/01/10 07:41:31;;;;;;;171.88;162.90;;;;;;;;;;5038794;28;20560;-60
2024/01/10 07:43:58;;;;;;;175.07;165.25;;;;;;;;;;5033147;28;20483;-60
2024/01/10 07:46:26;;;;;;;127.63;120.47;;;;;;;;;;5030868;28;20429;-60
2024/01/10 07:49:00;;;;;;;134.18;126.55;;;;;;;;;;5040043;28;20460;-60
2024/01/10 07:51:28;;;;;;;159.43;150.75;;;;;;;;;;5039731;28;20437;-60
2024/01/10 07:53:55;;;;;;;173.82;164.25;;;;;;;;;;5031687;28;20495;-60
2024/01/10 07:56:22;;;;;;;171.73;162.00;;;;;;;;;;5037211;28;20858;-60
2024/01/10 07:58:51;;;;;;;165.50;156.05;;;;;;;;;;5041778;28;20522;-60
2024/01/10 08:01:18;;;;;;;161.90;153.20;;;;;;;;;;5037535;28;20429;-60
2024/01/10 08:03:45;;;;;;;161.52;152.70;;;;;;;;;;5043360;28;20429;-60
2024/01/10 08:06:13;;;;;;;127.47;119.95;;;;;;;;;;5033175;28;20433;-60
2024/01/10 08:08:53;;;;;;;109.00;102.90;;;;;;;;;;5038132;28;20445;-60
2024/01/10 08:11:20;;;;;;;143.23;135.57;;;;;;;;;;5038011;28;20496;-60
2024/01/10 08:13:47;;;;;;;137.50;130.13;;;;;;;;;;5039082;28;20434;-60
2024/01/10 08:16:15;;;;;;;134.00;126.72;;;;;;;;;;5042246;28;20446;-60
2024/01/10 08:18:42;;;;;;;124.00;117.05;;;;;;;;;;5039490;28;20866;-60
2024/01/10 08:21:14;;;;;;;123.22;116.38;;;;;;;;;;5040828;28;20496;-60
2024/01/10 08:23:41;;;;;;;120.20;113.22;;;;;;;;;;5031941;28;20520;-60
2024/01/10 08:26:09;;;;;;;125.03;117.40;;;;;;;;;;5030826;28;20433;-60
2024/01/10 08:28:36;;;;;;;113.72;107.00;;;;;;;;;;5031453;28;20510;-60
2024/01/10 08:31:03;;;;;;;117.25;110.45;;;;;;;;;;5038990;28;20443;-60
2024/01/10 08:33:32;;;;;;;125.82;117.93;;;;;;;;;;5031505;28;20438;-60
2024/01/10 08:36:02;;;;;;;147.18;138.68;;;;;;;;;;5035500;28;20437;-60
2024/01/10 08:38:29;;;;;;;123.15;116.03;;;;;;;;;;5037759;28;20443;-60
2024/01/10 08:40:56;;;;;;;116.43;109.70;;;;;;;;;;5036956;28;20439;-63
2024/01/10 08:43:23;;;;;;;145.05;136.45;;;;;;;;;;5038620;28;20516;-59
2024/01/10 08:45:50;;;;;;;123.43;116.63;;;;;;;;;;5036481;28;20440;-59
2024/01/10 08:48:17;;;;;;;135.45;127.13;;;;;;;;;;5025923;28;20431;-59
2024/01/10 08:50:45;;;;;;;126.20;119.03;;;;;;;;;;5032493;28;20434;-59
2024/01/10 08:53:12;;;;;;;152.13;143.18;;;;;;;;;;5039649;28;20442;-60
2024/01/10 08:55:39;;;;;;;166.75;156.27;;;;;;;;;;5036037;28;20931;-59
2024/01/10 08:58:07;;;;;;;127.70;120.07;;;;;;;;;;5040368;28;20485;-59
2024/01/10 09:00:34;;;;;;;125.00;117.70;;;;;;;;;;5039494;28;20859;-59
2024/01/10 09:03:03;;;;;;;139.85;132.07;;;;;;;;;;5045259;28;20469;-60
2024/01/10 09:05:30;;;;;;;134.68;126.72;;;;;;;;;;5041412;28;20433;-59
2024/01/10 09:07:58;;;;;;;134.70;126.75;;;;;;;;;;5039269;28;20437;-59
2024/01/10 09:10:28;;;;;;;139.07;131.00;;;;;;;;;;5047369;28;20475;-59
2024/01/10 09:12:56;;;;;;;138.80;130.85;;;;;;;;;;5042508;28;20441;-59
2024/01/10 09:15:26;;;;;;;135.95;128.05;;;;;;;;;;5044356;28;20523;-59
2024/01/10 09:17:53;;;;;;;111.65;104.95;;;;;;;;;;5046375;28;20432;-60
2024/01/10 09:20:24;;;;;;;125.10;117.77;;;;;;;;;;5043520;28;20457;-60
2024/01/10 09:22:51;;;;;;;125.72;118.45;;;;;;;;;;5040578;28;20841;-60
2024/01/10 09:25:19;;;;;;;135.95;127.55;;;;;;;;;;5039366;28;20442;-59
2024/01/10 09:27:46;;;;;;;125.35;117.50;;;;;;;;;;5035213;28;20431;-59
2024/01/10 09:30:16;;;;;;;110.65;104.15;;;;;;;;;;5037801;28;20435;-59
2024/01/10 09:32:44;;;;;;;119.27;112.07;;;;;;;;;;5035725;28;20541;-59
2024/01/10 09:35:14;;;;;;;119.88;112.85;;;;;;;;;;5041031;28;20469;-60
2024/01/10 09:37:41;;;;;;;113.72;107.03;;;;;;;;;;5047534;28;20575;-60
2024/01/10 09:40:09;;;;;;;147.50;138.43;;;;;;;;;;5040719;28;20441;-60
2024/01/10 09:42:37;;;;;;;138.35;129.90;;;;;;;;;;5037040;28;20432;-60
2024/01/10 09:45:05;;;;;;;131.03;123.50;;;;;;;;;;5046674;28;20872;-61
2024/01/10 09:47:32;;;;;;;130.48;122.32;;;;;;;;;;5041250;28;20883;-60
2024/01/10 09:50:02;;;;;;;133.30;125.15;;;;;;;;;;5037988;28;20486;-60
2024/01/10 09:52:38;;;;;;;140.32;131.98;;;;;;;;;;5039565;28;20431;-60
2024/01/10 09:55:06;;;;;;;136.05;128.05;;;;;;;;;;5038225;28;20449;-60
2024/01/10 09:57:36;;;;;;;131.35;123.45;;;;;;;;;;5037753;28;20424;-60
2024/01/10 10:00:04;;;;;;;135.82;127.80;;;;;;;;;;5036548;28;20433;-60
2024/01/10 10:02:32;;;;;;;141.25;132.73;;;;;;;;;;5041104;28;20429;-60
2024/01/10 10:05:16;;;;;;;141.48;133.02;;;;;;;;;;5043321;28;20516;-60
2024/01/10 10:07:44;;;;;;;140.48;131.77;;;;;;;;;;5042984;28;21134;-62
2024/01/10 10:10:15;;;;;;;139.30;130.70;;;;;;;;;;5031793;28;20430;-60
2024/01/10 10:12:43;;;;;;;143.85;135.30;;;;;;;;;;5041282;28;20416;-60
2024/01/10 10:15:12;;;;;;;176.40;149.13;;;;;;;;;;5036476;28;20490;-60
2024/01/10 10:17:45;;;;;;;129.13;122.07;;;;;;;;;;5035719;28;20427;-60
2024/01/10 10:20:14;;;;;;;132.60;124.88;;;;;;;;;;5039260;28;20433;-60
2024/01/10 10:22:58;;;;;;;120.77;113.77;;;;;;;;;;5041810;28;20429;-61
2024/01/10 10:25:31;;;;;;;128.88;120.90;;;;;;;;;;5041630;28;20428;-60
2024/01/10 10:28:01;;;;;;;134.05;126.05;;;;;;;;;;5042345;28;20437;-60
2024/01/10 10:30:29;;;;;;;130.07;122.32;;;;;;;;;;5041443;28;20443;-61
2024/01/10 10:32:56;;;;;;;126.97;119.43;;;;;;;;;;5037858;28;20438;-60
2024/01/10 10:35:24;;;;;;;129.35;121.93;;;;;;;;;;5037107;28;20457;-60
2024/01/10 10:38:09;;;;;;;130.15;122.55;;;;;;;;;;5034347;28;20469;-61
2024/01/10 10:40:38;;;;;;;135.52;127.80;;;;;;;;;;5043016;28;20453;-61
2024/01/10 10:43:07;;;;;;;131.30;123.80;;;;;;;;;;5046998;28;20528;-61
2024/01/10 10:45:35;;;;;;;133.85;125.47;;;;;;;;;;5046837;28;20479;-61
2024/01/10 10:48:02;;;;;;;136.00;127.93;;;;;;;;;;5039759;28;20874;-61
2024/01/10 10:50:36;;;;;;;130.05;122.38;;;;;;;;;;5038074;28;20437;-61
2024/01/10 10:53:04;;;;;;;121.13;114.10;;;;;;;;;;5040901;28;20441;-61
2024/01/10 10:55:35;;;;;;;113.82;107.20;;;;;;;;;;5034222;28;20442;-61
2024/01/10 10:58:07;;;;;;;109.93;103.63;;;;;;;;;;5031132;28;20500;-61
2024/01/10 11:00:38;;;;;;;124.47;116.97;;;;;;;;;;5030141;28;20482;-61
2024/01/10 11:03:07;;;;;;;119.38;112.22;;;;;;;;;;5032249;28;20431;-61
2024/01/10 11:05:35;;;;;;;110.28;103.53;;;;;;;;;;5041862;28;20421;-61
2024/01/10 11:08:04;;;;;;;142.43;134.23;;;;;;;;;;5048071;28;20483;-62
2024/01/10 11:10:34;;;;;;;124.95;117.75;;;;;;;;;;5046888;28;20456;-62
2024/01/10 11:13:02;;;;;;;133.90;125.53;;;;;;;;;;5041651;28;20425;-61
2024/01/10 11:15:49;;;;;;;124.75;117.47;;;;;;;;;;5037350;28;20777;-62
2024/01/10 11:18:22;;;;;;;119.75;112.30;;;;;;;;;;5042382;28;20484;-62
2024/01/10 11:20:58;;;;;;;121.50;114.57;;;;;;;;;;5031187;28;20909;-62
2024/01/10 11:23:44;;;;;;;105.13;99.22;;;;;;;;;;5036978;28;20456;-62
2024/01/10 11:26:13;;;;;;;149.68;140.57;;;;;;;;;;5035274;28;20451;-63
2024/01/10 11:28:40;;;;;;;145.07;136.13;;;;;;;;;;5035923;28;20454;-63
2024/01/10 11:31:08;;;;;;;138.70;130.75;;;;;;;;;;5041607;28;20429;-63
2024/01/10 11:33:41;;;;;;;148.40;139.95;;;;;;;;;;5039286;28;20457;-62
2024/01/10 11:36:24;;;;;;;142.88;134.82;;;;;;;;;;5030324;28;21006;-62
2024/01/10 11:38:59;;;;;;;150.55;141.75;;;;;;;;;;5041004;28;20425;-63
2024/01/10 11:41:29;;;;;;;138.27;130.43;;;;;;;;;;5033087;28;20494;-62
2024/01/10 11:46:41;;;;;;;145.93;137.52;;;;;;;;;;5033841;28;20451;-63
2024/01/10 11:49:08;;;;;;;155.88;146.95;;;;;;;;;;5037238;28;20577;-63
2024/01/10 11:51:39;;;;;;;107.38;101.40;;;;;;;;;;5043422;28;20421;-62
2024/01/10 11:54:07;;;;;;;112.17;105.83;;;;;;;;;;5046067;28;20425;-62
2024/01/10 11:56:45;;;;;;;108.22;102.03;;;;;;;;;;5046850;28;20527;-62
2024/01/10 11:59:16;;;;;;;132.57;124.95;;;;;;;;;;5044979;28;20425;-62
2024/01/10 12:01:47;;;;;;;120.60;113.60;;;;;;;;;;5035116;28;20514;-63
2024/01/10 12:04:17;;;;;;;144.77;136.45;;;;;;;;;;5038557;28;20432;-64
2024/01/10 12:06:57;;;;;;;140.65;132.45;;;;;;;;;;5035254;28;20798;-62
2024/01/10 12:09:24;;;;;;;132.70;125.13;;;;;;;;;;5035595;28;20937;-62
2024/01/10 12:11:51;;;;;;;145.63;136.98;;;;;;;;;;5038612;28;20488;-62
2024/01/10 12:14:20;;;;;;;145.10;136.48;;;;;;;;;;5036129;28;20439;-63
2024/01/10 12:16:52;;;;;;;143.00;134.05;;;;;;;;;;5029463;28;20438;-62
2024/01/10 12:19:19;;;;;;;150.23;140.82;;;;;;;;;;5035645;28;20438;-62
2024/01/10 12:21:47;;;;;;;116.20;109.53;;;;;;;;;;5042676;28;20474;-62
2024/01/10 12:24:17;;;;;;;128.82;121.38;;;;;;;;;;5036971;28;20433;-62
2024/01/10 12:26:45;;;;;;;129.03;121.13;;;;;;;;;;5035000;28;20939;-62
2024/01/10 12:29:13;;;;;;;118.97;111.93;;;;;;;;;;5043197;28;20440;-62
2024/01/10 12:31:40;;;;;;;139.27;131.02;;;;;;;;;;5040285;28;20933;-62
2024/01/10 12:34:09;;;;;;;133.85;125.70;;;;;;;;;;5037887;28;20517;-62
2024/01/10 12:36:39;;;;;;;134.32;126.18;;;;;;;;;;5042102;28;20433;-62
2024/01/10 12:39:09;;;;;;;114.25;106.85;;;;;;;;;;5037658;28;20429;-62
2024/01/10 12:41:36;;;;;;;126.40;118.57;;;;;;;;;;5040687;28;20513;-61
2024/01/10 12:44:06;;;;;;;145.68;136.90;;;;;;;;;;5029695;28;20936;-62
2024/01/10 12:46:33;;;;;;;136.05;128.05;;;;;;;;;;5027192;28;20442;-62
2024/01/10 12:49:02;;;;;;;132.50;124.80;;;;;;;;;;5030214;28;20527;-61
2024/01/10 12:51:31;;;;;;;135.85;127.88;;;;;;;;;;5041557;28;20437;-61
2024/01/10 12:54:01;;;;;;;134.43;126.50;;;;;;;;;;5035215;28;20440;-62
2024/01/10 12:56:29;;;;;;;139.82;131.45;;;;;;;;;;5034352;28;20434;-62
2024/01/10 12:58:57;;;;;;;127.30;119.82;;;;;;;;;;5033482;28;20429;-62
2024/01/10 13:01:27;;;;;;;148.35;139.38;;;;;;;;;;5030650;28;20501;-62
2024/01/10 13:03:56;;;;;;;143.88;135.63;;;;;;;;;;5038857;28;20437;-61
2024/01/10 13:06:24;;;;;;;132.50;124.80;;;;;;;;;;5038522;28;20447;-61
2024/01/10 13:08:52;;;;;;;139.60;130.80;;;;;;;;;;5044061;28;20441;-62
2024/01/10 13:11:20;;;;;;;132.05;123.88;;;;;;;;;;5040794;28;20442;-62
2024/01/10 13:13:47;;;;;;;146.73;137.75;;;;;;;;;;5045012;28;20451;-61
2024/01/10 13:16:14;;;;;;;128.23;120.72;;;;;;;;;;5042513;28;20430;-61
2024/01/10 13:18:42;;;;;;;116.68;109.95;;;;;;;;;;5027104;28;20468;-61
2024/01/10 13:21:10;;;;;;;120.63;113.55;;;;;;;;;;5041197;28;20429;-61
2024/01/10 13:23:37;;;;;;;123.22;116.07;;;;;;;;;;5027229;28;20433;-61
2024/01/10 13:26:05;;;;;;;138.85;130.93;;;;;;;;;;5036991;28;20468;-61
2024/01/10 13:28:32;;;;;;;119.03;111.78;;;;;;;;;;5040187;28;20956;-61
2024/01/10 13:30:59;;;;;;;120.15;112.63;;;;;;;;;;5038473;28;20886;-61
2024/01/10 13:33:26;;;;;;;122.18;114.47;;;;;;;;;;5037048;28;20497;-61
2024/01/10 13:35:59;;;;;;;123.65;116.55;;;;;;;;;;5040522;28;20425;-61
2024/01/10 13:38:26;;;;;;;111.43;105.10;;;;;;;;;;5035788;28;20807;-61
2024/01/10 13:40:56;;;;;;;111.70;104.63;;;;;;;;;;5045659;28;20461;-62
2024/01/10 13:43:24;;;;;;;112.95;106.55;;;;;;;;;;5031530;28;20495;-61
2024/01/10 13:45:52;;;;;;;116.93;109.85;;;;;;;;;;5048348;28;20879;-61
2024/01/10 13:48:19;;;;;;;121.40;114.35;;;;;;;;;;5042107;28;20521;-61
2024/01/10 13:50:46;;;;;;;123.90;116.90;;;;;;;;;;5043046;28;20431;-61
2024/01/10 13:53:17;;;;;;;125.13;117.65;;;;;;;;;;5047507;28;20433;-61
2024/01/10 13:55:46;;;;;;;115.25;108.60;;;;;;;;;;5037801;28;20423;-61
2024/01/10 13:58:13;;;;;;;119.03;112.32;;;;;;;;;;5044492;28;20594;-61
2024/01/10 14:00:40;;;;;;;118.55;111.78;;;;;;;;;;5041756;28;20880;-61
2024/01/10 14:03:11;;;;;;;117.03;110.33;;;;;;;;;;5040015;28;20433;-61